Time;durP1;ratioP1;P1;durP2;ratioP2;P2;SDS_P1;SDS_P2;PMS_P1;PMS_P2;Temp;Humidity;BMP_temperature;BMP_pressure;BME280_temperature;BME280_humidity;BME280_pressure;Samples;Min_cycle;Max_cycle;Signal;HPM_P1;HPM_P2
2023/01/11 00:02:06;;;;;;;3.70;1.30;;;;;;;5.52;94.22;100494.38;5982551;28;20317;-76
2023/01/11 00:05:02;;;;;;;4.20;1.03;;;;;;;5.50;93.96;100475.25;5970718;29;20043;-74
2023/01/11 00:07:57;;;;;;;6.22;1.00;;;;;;;5.61;94.19;100504.19;5978976;29;20039;-75
2023/01/11 00:10:53;;;;;;;5.53;1.27;;;;;;;5.62;94.43;100497.97;5976672;29;20039;-76
2023/01/11 00:13:49;;;;;;;5.88;1.25;;;;;;;5.58;94.42;100488.63;5976688;29;20491;-75
2023/01/11 00:16:44;;;;;;;3.63;0.87;;;;;;;5.57;94.78;100481.69;5978439;28;20041;-78
2023/01/11 00:19:39;;;;;;;4.97;1.30;;;;;;;5.58;94.77;100488.63;5978388;29;20035;-76
2023/01/11 00:22:35;;;;;;;3.97;1.63;;;;;;;5.59;95.69;100495.56;5974479;29;20138;-75
2023/01/11 00:25:30;;;;;;;3.60;1.02;;;;;;;5.63;95.01;100485.63;5978687;29;20266;-75
2023/01/11 00:28:27;;;;;;;5.65;1.30;;;;;;;5.55;95.02;100477.50;5975735;29;20380;-74
2023/01/11 00:31:22;;;;;;;4.60;0.93;;;;;;;5.58;95.17;100487.78;5978444;29;20042;-74
2023/01/11 00:34:18;;;;;;;1.40;0.80;;;;;;;5.65;94.90;100484.59;5977437;29;20039;-74
2023/01/11 00:37:14;;;;;;;3.65;0.90;;;;;;;5.71;95.41;100488.50;5976167;29;20051;-75
2023/01/11 00:40:09;;;;;;;3.43;1.03;;;;;;;5.66;94.88;100465.19;5975728;29;20053;-78
2023/01/11 00:49:32;;;;;;;4.03;1.20;;;;;;;5.74;94.17;100439.13;5978977;29;20035;-75
2023/01/11 00:52:28;;;;;;;3.08;1.13;;;;;;;5.82;94.38;100454.28;5978875;29;20039;-75
2023/01/11 00:55:23;;;;;;;1.55;0.70;;;;;;;5.84;93.98;100439.25;5978969;29;20031;-74
2023/01/11 00:58:19;;;;;;;3.45;1.10;;;;;;;5.91;93.60;100448.34;5979119;29;20038;-74
2023/01/11 01:01:14;;;;;;;2.80;1.00;;;;;;;5.89;93.12;100439.72;5978486;29;20027;-75
2023/01/11 01:04:09;;;;;;;3.50;0.80;;;;;;;5.99;93.39;100446.75;5977421;29;20074;-75
2023/01/11 01:07:05;;;;;;;2.40;0.97;;;;;;;5.90;93.18;100420.34;5978323;29;20074;-74
2023/01/11 01:10:00;;;;;;;4.35;1.10;;;;;;;6.06;92.83;100435.75;5978247;29;20027;-76
2023/01/11 01:16:10;;;;;;;1.98;0.93;;;;;;;6.01;92.87;100424.75;5978255;29;20035;-74
2023/01/11 01:19:06;;;;;;;3.17;0.70;;;;;;;6.02;92.88;100436.94;5978130;29;20031;-76
2023/01/11 01:22:01;;;;;;;2.28;0.80;;;;;;;6.07;93.33;100437.41;5977164;29;20039;-76
2023/01/11 01:24:56;;;;;;;1.23;0.63;;;;;;;6.06;92.66;100435.75;5978029;29;20036;-75
2023/01/11 01:27:52;;;;;;;2.50;1.10;;;;;;;6.11;93.17;100428.31;5978327;29;20031;-74
2023/01/11 01:30:50;;;;;;;6.53;1.43;;;;;;;6.22;92.40;100437.00;5981880;28;20031;-73
2023/01/11 01:33:45;;;;;;;2.53;0.80;;;;;;;6.23;92.48;100437.81;5982255;29;20051;-75
2023/01/11 01:36:41;;;;;;;4.47;0.87;;;;;;;6.17;92.56;100425.19;5982902;29;20038;-74
2023/01/11 01:39:36;;;;;;;2.58;0.98;;;;;;;6.20;92.62;100441.53;5982713;29;20772;-75
2023/01/11 01:42:32;;;;;;;4.88;0.80;;;;;;;6.14;93.51;100420.16;5981640;28;20547;-74
2023/01/11 01:45:27;;;;;;;2.90;1.17;;;;;;;6.21;93.04;100423.97;5983053;29;20039;-76
2023/01/11 01:48:24;;;;;;;7.63;1.10;;;;;;;6.25;93.18;100442.00;5982394;29;20055;-74
2023/01/11 01:51:31;;;;;;;1.77;0.80;;;;;;;6.26;93.16;100429.69;5982531;29;20495;-74
2023/01/11 01:54:28;;;;;;;;;;;;;;;6.23;93.91;100422.88;5969325;29;20061;-73
2023/01/11 01:57:27;;;;;;;5.75;1.45;;;;;;;6.14;93.83;100407.84;5964495;29;19952;-74
2023/01/11 02:00:23;;;;;;;1.65;0.82;;;;;;;6.22;94.41;100415.13;5982217;29;20031;-75
2023/01/11 02:03:22;;;;;;;2.03;0.80;;;;;;;6.16;94.57;100410.34;5981219;29;20114;-74
2023/01/11 02:06:18;;;;;;;1.75;0.80;;;;;;;6.12;94.72;100387.84;5964973;29;20063;-74
2023/01/11 02:09:32;;;;;;;2.25;0.93;;;;;;;6.17;95.07;100393.59;5964819;29;20027;-74
2023/01/11 02:12:33;;;;;;;0.98;0.70;;;;;;;6.08;94.73;100376.75;5981343;29;20181;-74
2023/01/11 02:15:29;;;;;;;3.13;1.00;;;;;;;6.13;95.13;100379.84;5957351;29;20046;-75
2023/01/11 02:18:24;;;;;;;2.88;0.93;;;;;;;6.17;95.34;100373.34;5978838;29;20031;-76
2023/01/11 02:21:24;;;;;;;2.00;1.20;;;;;;;6.12;95.18;100361.53;5981635;29;20047;-74
2023/01/11 02:24:53;;;;;;;3.53;0.90;;;;;;;6.17;95.24;100369.91;5963996;29;20035;-74
2023/01/11 02:28:11;;;;;;;5.18;1.00;;;;;;;6.14;95.53;100338.56;5964302;29;20034;-75
2023/01/11 02:31:25;;;;;;;1.67;0.70;;;;;;;6.12;95.58;100358.91;5964286;29;20389;-74
2023/01/11 02:34:34;;;;;;;6.82;1.27;;;;;;;6.09;95.28;100344.19;5980820;29;20122;-74
2023/01/11 02:37:50;;;;;;;2.00;0.80;;;;;;;6.07;95.57;100342.66;5981647;29;20028;-75
2023/01/11 02:41:02;;;;;;;1.02;0.60;;;;;;;6.13;95.73;100348.25;5964654;29;20035;-75
2023/01/11 02:47:35;;;;;;;4.18;1.00;;;;;;;6.00;95.98;100323.91;5966764;29;20510;-75
2023/01/11 02:50:50;;;;;;;4.38;0.95;;;;;;;6.11;96.68;100346.72;5979604;29;20098;-76
2023/01/11 02:53:54;;;;;;;3.25;0.80;;;;;;;6.09;96.83;100335.50;5962982;29;21668;-76
2023/01/11 02:56:53;;;;;;;1.30;0.65;;;;;;;6.06;97.05;100319.94;5963789;29;20058;-74
2023/01/11 02:59:49;;;;;;;2.88;1.25;;;;;;;6.01;97.45;100311.59;5980942;29;20058;-76
2023/01/11 03:02:44;;;;;;;1.35;1.13;;;;;;;6.13;97.14;100331.63;5979627;29;20031;-75
2023/01/11 03:05:46;;;;;;;3.00;1.10;;;;;;;6.19;97.55;100318.78;5980730;29;20039;-75
2023/01/11 03:09:01;;;;;;;2.65;1.02;;;;;;;6.11;97.27;100304.59;5963657;29;20074;-75
2023/01/11 03:15:47;;;;;;;2.53;0.90;;;;;;;6.28;97.21;100301.38;5980634;29;20039;-77
2023/01/11 03:18:57;;;;;;;1.77;1.00;;;;;;;6.29;97.03;100297.78;5964315;29;20023;-76
2023/01/11 03:22:06;;;;;;;2.58;0.73;;;;;;;6.34;96.53;100292.97;5963682;29;20038;-76
2023/01/11 03:25:12;;;;;;;2.42;1.52;;;;;;;6.41;96.43;100300.22;5981010;29;20031;-75
2023/01/11 03:28:21;;;;;;;2.80;0.68;;;;;;;6.42;96.14;100301.88;5981102;29;20039;-76
2023/01/11 03:31:21;;;;;;;2.80;0.98;;;;;;;6.41;95.69;100278.34;5981113;29;20031;-74
2023/01/11 03:34:23;;;;;;;2.08;0.60;;;;;;;6.58;95.82;100302.25;5963215;29;20051;-76
2023/01/11 03:37:30;;;;;;;2.45;1.17;;;;;;;6.51;95.46;100281.84;5981364;29;20510;-75
2023/01/11 03:40:48;;;;;;;2.95;0.90;;;;;;;6.53;95.76;100279.91;5963944;29;20040;-75
2023/01/11 03:43:45;;;;;;;2.92;0.90;;;;;;;6.54;95.85;100281.59;5979840;28;20055;-76
2023/01/11 03:46:45;;;;;;;2.67;0.80;;;;;;;6.52;95.63;100280.88;5964275;29;20046;-74
2023/01/11 03:50:04;;;;;;;3.17;1.10;;;;;;;6.63;95.95;100279.97;5963992;29;20097;-74
2023/01/11 03:53:03;;;;;;;4.25;1.25;;;;;;;6.58;95.63;100268.00;5942883;29;20058;-74
2023/01/11 03:55:59;;;;;;;1.52;0.73;;;;;;;6.68;96.41;100275.13;5980403;29;20047;-74
2023/01/11 03:58:54;;;;;;;4.32;1.42;;;;;;;6.67;95.58;100253.22;5963085;29;20039;-76
2023/01/11 04:01:52;;;;;;;2.27;0.70;;;;;;;6.77;95.40;100264.63;5963171;29;20046;-75
2023/01/11 04:04:47;;;;;;;2.95;1.10;;;;;;;6.81;94.92;100254.66;5962791;29;20667;-76
2023/01/11 04:07:42;;;;;;;3.13;1.00;;;;;;;6.85;95.60;100277.97;5963323;29;20027;-77
2023/01/11 04:10:38;;;;;;;4.53;1.00;;;;;;;6.80;94.73;100248.53;5981066;29;20049;-74
2023/01/11 04:13:33;;;;;;;4.80;1.37;;;;;;;6.80;94.79;100243.28;5979089;29;20027;-76
2023/01/11 04:16:28;;;;;;;3.10;1.10;;;;;;;6.90;94.33;100241.50;5980094;29;20051;-75
2023/01/11 04:19:24;;;;;;;3.73;1.13;;;;;;;6.92;95.03;100247.50;5980052;29;20030;-76
2023/01/11 04:22:19;;;;;;;2.50;1.00;;;;;;;6.89;94.88;100239.84;5980080;29;20043;-75
2023/01/11 04:25:14;;;;;;;1.70;0.90;;;;;;;6.94;94.55;100237.66;5979490;29;20027;-76
2023/01/11 04:28:10;;;;;;;2.80;1.23;;;;;;;7.03;94.62;100243.91;5978390;29;20047;-75
2023/01/11 04:31:05;;;;;;;5.95;2.13;;;;;;;6.97;94.59;100234.75;5979563;29;20043;-74
2023/01/11 04:34:02;;;;;;;3.17;1.07;;;;;;;6.99;94.63;100237.22;5962313;29;20110;-75
2023/01/11 04:36:57;;;;;;;4.93;0.93;;;;;;;7.07;94.65;100261.94;5979880;29;20039;-75
2023/01/11 04:39:52;;;;;;;2.20;1.07;;;;;;;6.99;94.80;100238.06;5979818;29;20470;-75
2023/01/11 04:42:48;;;;;;;4.57;1.20;;;;;;;7.02;94.78;100219.34;5979429;29;20279;-75
2023/01/11 04:45:43;;;;;;;2.30;1.00;;;;;;;7.02;94.80;100218.50;5980147;28;20383;-75
2023/01/11 04:48:39;;;;;;;2.40;1.37;;;;;;;7.11;94.51;100225.63;5979596;29;20345;-76
2023/01/11 04:51:34;;;;;;;2.50;1.02;;;;;;;7.08;94.64;100213.53;5979891;29;20058;-75
2023/01/11 04:54:29;;;;;;;1.73;0.90;;;;;;;7.17;94.44;100220.63;5978924;29;20082;-76
2023/01/11 04:57:25;;;;;;;4.93;1.70;;;;;;;7.12;94.61;100222.81;5978600;29;20031;-75
2023/01/11 05:00:20;;;;;;;2.92;1.15;;;;;;;7.16;94.87;100216.31;5973501;29;20030;-76
2023/01/11 05:03:16;;;;;;;2.20;1.10;;;;;;;7.11;94.83;100199.25;5978227;28;20066;-74
2023/01/11 05:06:12;;;;;;;2.73;0.80;;;;;;;7.22;94.01;100227.28;5979064;29;20526;-76
2023/01/11 05:09:15;;;;;;;2.08;1.10;;;;;;;7.17;94.38;100220.63;5979334;29;20285;-74
2023/01/11 05:12:10;;;;;;;3.67;1.45;;;;;;;7.24;94.71;100198.97;5978357;29;20035;-75
2023/01/11 05:15:15;;;;;;;3.60;0.90;;;;;;;7.20;94.49;100204.53;5979256;29;20114;-76
2023/01/11 05:18:10;;;;;;;2.90;1.02;;;;;;;7.31;94.53;100211.47;5978872;29;20035;-75
2023/01/11 05:21:06;;;;;;;4.00;1.53;;;;;;;7.30;94.70;100209.81;5979146;29;20126;-76
2023/01/11 05:24:03;;;;;;;2.72;1.17;;;;;;;7.26;94.71;100208.41;5978518;29;20031;-74
2023/01/11 05:26:58;;;;;;;2.70;0.70;;;;;;;7.26;95.18;100204.94;5978848;29;20043;-77
2023/01/11 05:29:54;;;;;;;0.63;0.43;;;;;;;7.34;94.96;100199.84;5978930;29;20035;-74
2023/01/11 05:32:49;;;;;;;1.97;0.93;;;;;;;7.30;95.10;100195.81;5977494;29;20467;-77
2023/01/11 05:35:44;;;;;;;1.43;0.83;;;;;;;7.32;95.30;100202.59;5978555;29;20039;-76
2023/01/11 05:38:39;;;;;;;2.70;1.00;;;;;;;7.34;95.09;100200.66;5979422;29;20034;-76
2023/01/11 05:41:35;;;;;;;2.30;0.87;;;;;;;7.36;95.53;100192.63;5978861;29;20399;-75
2023/01/11 05:47:44;;;;;;;2.03;0.82;;;;;;;7.35;96.16;100207.59;5979073;29;20039;-74
2023/01/11 05:50:40;;;;;;;2.57;0.90;;;;;;;7.28;97.17;100216.22;5976856;29;20375;-74
2023/01/11 05:53:35;;;;;;;2.20;1.00;;;;;;;7.24;98.00;100212.16;5977876;29;20282;-75
2023/01/11 05:56:31;;;;;;;1.70;0.80;;;;;;;7.27;98.10;100209.25;5978145;29;20423;-76
2023/01/11 05:59:26;;;;;;;6.30;1.15;;;;;;;7.32;97.85;100191.22;5978214;29;20424;-75
2023/01/11 06:02:21;;;;;;;2.23;0.60;;;;;;;7.31;97.83;100192.19;5978060;29;20046;-75
2023/01/11 06:05:17;;;;;;;4.27;1.10;;;;;;;7.39;97.97;100210.81;5977935;29;20043;-77
2023/01/11 06:08:13;;;;;;;1.35;0.80;;;;;;;7.25;98.00;100190.09;5977718;28;20183;-75
2023/01/11 06:11:08;;;;;;;2.47;1.25;;;;;;;7.33;98.04;100195.53;5977638;28;20031;-74
2023/01/11 06:14:03;;;;;;;2.67;0.90;;;;;;;7.39;97.57;100218.72;5978088;29;20030;-75
2023/01/11 06:17:01;;;;;;;3.00;0.87;;;;;;;7.44;97.68;100217.34;5981832;28;20478;-74
2023/01/11 06:19:56;;;;;;;2.85;0.75;;;;;;;7.41;97.38;100207.06;5982999;29;20387;-74
2023/01/11 06:22:51;;;;;;;2.47;0.70;;;;;;;7.45;97.64;100210.22;5981563;29;20027;-75
2023/01/11 06:25:47;;;;;;;1.50;0.97;;;;;;;7.44;97.73;100211.22;5982820;29;20046;-74
2023/01/11 06:28:43;;;;;;;4.87;0.80;;;;;;;7.31;98.38;100202.75;5981988;29;20062;-74
2023/01/11 06:31:39;;;;;;;1.85;0.90;;;;;;;7.27;99.32;100220.63;5982764;29;20274;-76
2023/01/11 06:34:34;;;;;;;1.40;0.60;;;;;;;7.29;100.00;100223.97;5982041;29;20454;-77
2023/01/11 06:37:29;;;;;;;2.70;0.83;;;;;;;7.28;100.00;100226.75;5982451;29;20422;-75
2023/01/11 06:40:25;;;;;;;2.10;0.80;;;;;;;7.27;100.00;100225.06;5982182;29;20275;-74
2023/01/11 06:43:21;;;;;;;2.33;0.83;;;;;;;7.26;100.00;100213.69;5981400;29;20122;-73
2023/01/11 06:46:17;;;;;;;1.05;0.70;;;;;;;7.22;100.00;100222.03;5981902;28;20038;-74
2023/01/11 06:49:13;;;;;;;1.40;0.70;;;;;;;7.19;100.00;100223.97;5982476;29;20039;-74
2023/01/11 06:52:08;;;;;;;1.20;0.80;;;;;;;7.08;100.00;100215.34;5981397;29;20043;-74
2023/01/11 06:55:04;;;;;;;1.53;0.60;;;;;;;7.01;100.00;100195.78;5981504;29;20042;-73
2023/01/11 06:57:59;;;;;;;2.25;0.75;;;;;;;7.06;100.00;100218.13;5982055;29;20118;-74
2023/01/11 07:00:56;;;;;;;1.90;0.87;;;;;;;6.93;100.00;100206.97;5980292;29;20024;-73
2023/01/11 07:03:52;;;;;;;3.22;0.80;;;;;;;6.90;100.00;100207.25;5979646;28;20626;-74
2023/01/11 07:06:47;;;;;;;2.40;1.20;;;;;;;6.95;100.00;100215.59;5981667;28;20035;-74
2023/01/11 07:09:42;;;;;;;2.07;1.00;;;;;;;7.00;100.00;100223.94;5982235;29;20106;-74
2023/01/11 07:12:38;;;;;;;1.75;0.82;;;;;;;7.00;100.00;100207.28;5980827;29;20399;-74
2023/01/11 07:15:33;;;;;;;4.28;1.02;;;;;;;7.01;100.00;100217.66;5981131;29;20418;-74
2023/01/11 07:18:30;;;;;;;3.03;1.10;;;;;;;6.97;100.00;100197.84;5981816;29;20399;-75
2023/01/11 07:21:25;;;;;;;2.20;1.00;;;;;;;7.06;100.00;100222.56;5981373;29;20043;-75
2023/01/11 07:24:23;;;;;;;1.20;0.57;;;;;;;6.99;100.00;100197.69;5981183;29;20443;-75
2023/01/11 07:27:19;;;;;;;1.67;1.15;;;;;;;7.07;100.00;100225.03;5980201;28;20286;-75
2023/01/11 07:30:14;;;;;;;1.30;0.60;;;;;;;7.08;100.00;100216.19;5981201;29;20046;-74
2023/01/11 07:33:10;;;;;;;1.47;0.70;;;;;;;7.06;100.00;100207.56;5981003;28;20484;-75
2023/01/11 07:36:06;;;;;;;1.30;0.70;;;;;;;7.11;100.00;100212.44;5981239;29;20278;-74
2023/01/11 07:39:01;;;;;;;5.38;0.88;;;;;;;7.09;100.00;100195.94;5981231;29;20055;-76
2023/01/11 07:45:10;;;;;;;;;;;;;;;7.25;100.00;100224.38;5981226;28;20118;-75
2023/01/11 07:48:07;;;;;;;3.63;1.23;;;;;;;7.13;100.00;100207.84;5981268;29;19910;-76
2023/01/11 07:51:02;;;;;;;1.50;0.80;;;;;;;7.13;100.00;100208.69;5980988;28;20078;-76
2023/01/11 07:54:01;;;;;;;2.07;0.60;;;;;;;7.23;100.00;100202.59;5980498;29;20043;-76
2023/01/11 07:56:56;;;;;;;1.45;0.70;;;;;;;7.26;100.00;100213.69;5980815;29;20277;-76
2023/01/11 07:59:51;;;;;;;1.08;0.70;;;;;;;7.20;100.00;100199.25;5980564;28;20063;-74
2023/01/11 08:02:54;;;;;;;1.17;0.70;;;;;;;7.37;100.00;100223.28;5980124;29;20035;-74
2023/01/11 08:05:50;;;;;;;2.90;0.88;;;;;;;7.43;100.00;100222.72;5980742;29;20110;-76
2023/01/11 08:08:45;;;;;;;1.13;0.70;;;;;;;7.49;100.00;100230.09;5980660;29;20031;-74
2023/01/11 08:14:54;;;;;;;1.45;0.75;;;;;;;7.46;100.00;100209.28;5980484;29;20051;-77
2023/01/11 08:17:49;;;;;;;1.37;0.80;;;;;;;7.47;100.00;100213.59;5980063;28;20031;-76
2023/01/11 08:20:46;;;;;;;2.03;0.60;;;;;;;7.46;100.00;100211.91;5980613;29;20039;-76
2023/01/11 08:23:41;;;;;;;2.67;1.13;;;;;;;7.43;100.00;100206.91;5979481;29;20524;-75
2023/01/11 08:26:37;;;;;;;3.33;0.90;;;;;;;7.41;100.00;100211.50;5980436;29;20039;-75
2023/01/11 08:29:32;;;;;;;1.73;0.80;;;;;;;7.37;100.00;100202.16;5980237;29;20039;-75
2023/01/11 08:32:28;;;;;;;1.93;0.70;;;;;;;7.47;100.00;100232.06;5979102;29;20093;-76
2023/01/11 08:35:24;;;;;;;3.03;1.13;;;;;;;7.43;100.00;100220.09;5980055;29;20498;-75
2023/01/11 08:38:19;;;;;;;1.83;0.82;;;;;;;7.51;100.00;100236.06;5979823;28;20118;-75
2023/01/11 08:41:15;;;;;;;2.80;0.90;;;;;;;7.56;100.00;100236.47;5978473;28;20038;-74
2023/01/11 08:44:10;;;;;;;1.40;0.83;;;;;;;7.49;100.00;100219.53;5978438;28;20046;-76
2023/01/11 08:47:06;;;;;;;1.20;0.77;;;;;;;7.51;100.00;100218.44;5978366;28;20333;-75
2023/01/11 08:50:01;;;;;;;1.65;0.85;;;;;;;7.58;100.00;100235.38;5979476;29;20023;-74
2023/01/11 08:52:56;;;;;;;3.53;1.13;;;;;;;7.51;100.00;100223.72;5978849;29;20505;-75
2023/01/11 08:55:52;;;;;;;1.47;0.93;;;;;;;7.57;100.00;100231.06;5979748;29;20114;-74
2023/01/11 08:58:47;;;;;;;1.55;0.80;;;;;;;7.52;100.00;100237.75;5979417;28;20102;-76
2023/01/11 09:01:43;;;;;;;1.97;0.90;;;;;;;7.60;100.00;100249.28;5978946;29;20031;-75
2023/01/11 09:04:38;;;;;;;1.67;1.00;;;;;;;7.59;100.00;100239.69;5978022;29;20042;-76
2023/01/11 09:07:33;;;;;;;1.03;0.60;;;;;;;7.66;100.00;100250.53;5979152;29;20090;-76
2023/01/11 09:10:29;;;;;;;1.60;0.80;;;;;;;7.63;100.00;100235.81;5979133;29;20082;-75
2023/01/11 09:13:25;;;;;;;2.13;0.80;;;;;;;7.77;100.00;100245.91;5978565;29;20066;-74
2023/01/11 09:16:20;;;;;;;1.40;0.70;;;;;;;7.82;100.00;100250.78;5979112;29;20122;-74
2023/01/11 09:19:16;;;;;;;2.23;0.60;;;;;;;7.77;100.00;100234.56;5977604;29;20471;-76
2023/01/11 09:22:11;;;;;;;3.37;0.70;;;;;;;7.79;100.00;100237.88;5978208;29;20054;-76
2023/01/11 09:25:07;;;;;;;0.83;0.50;;;;;;;7.85;100.00;100247.88;5978420;29;20926;-75
2023/01/11 09:28:02;;;;;;;0.65;0.50;;;;;;;7.93;100.00;100250.66;5979183;29;20058;-75
2023/01/11 09:30:58;;;;;;;2.77;0.70;;;;;;;7.95;100.00;100246.06;5978430;29;20034;-75
2023/01/11 09:33:53;;;;;;;2.17;0.50;;;;;;;7.90;100.00;100237.72;5976978;28;20345;-74
2023/01/11 09:36:49;;;;;;;1.60;0.70;;;;;;;7.99;100.00;100250.06;5978791;29;20491;-75
2023/01/11 09:39:45;;;;;;;1.83;0.85;;;;;;;8.08;100.00;100254.50;5979033;29;20027;-75
2023/01/11 09:42:42;;;;;;;0.85;0.60;;;;;;;8.17;100.00;100264.25;5975473;29;20027;-73
2023/01/11 09:45:45;;;;;;;1.90;0.63;;;;;;;8.11;100.00;100256.88;5978090;28;20042;-76
2023/01/11 09:48:44;;;;;;;1.75;0.65;;;;;;;8.13;100.00;100251.44;5979232;29;20059;-75
2023/01/11 09:51:40;;;;;;;0.88;0.63;;;;;;;8.25;100.00;100261.72;5979870;28;20134;-75
2023/01/11 09:54:36;;;;;;;0.73;0.55;;;;;;;8.22;nan;100261.16;5980525;29;20059;-75
2023/01/11 09:57:55;;;;;;;1.77;0.70;;;;;;;8.23;100.00;100262.84;5983189;28;20035;-75
2023/01/11 10:01:30;;;;;;;3.50;1.40;;;;;;;8.27;100.00;100254.50;5983493;29;20106;-76
2023/01/11 10:04:42;;;;;;;4.55;0.98;;;;;;;8.25;100.00;100245.88;5980196;29;20034;-75
2023/01/11 10:07:48;;;;;;;2.08;1.00;;;;;;;8.36;100.00;100253.66;5966061;29;20033;-76
2023/01/11 10:10:56;;;;;;;1.65;1.00;;;;;;;8.34;100.00;100245.03;5966488;29;20062;-75
2023/01/11 10:14:02;;;;;;;2.10;0.88;;;;;;;8.26;100.00;100231.66;5981831;28;20382;-75
2023/01/11 10:17:19;;;;;;;2.28;1.00;;;;;;;8.06;100.00;100216.84;5982901;29;20487;-73
2023/01/11 10:20:23;;;;;;;2.00;1.13;;;;;;;8.17;100.00;100232.53;5981267;29;20035;-74
2023/01/11 10:23:31;;;;;;;1.83;0.90;;;;;;;8.18;100.00;100218.34;5965632;29;20459;-75
2023/01/11 10:26:34;;;;;;;1.88;0.90;;;;;;;8.10;100.00;100242.00;5966130;29;20098;-76
2023/01/11 10:35:49;;;;;;;1.00;0.70;;;;;;;8.16;100.00;100267.84;5982716;29;20122;-74
2023/01/11 10:39:16;;;;;;;0.82;0.60;;;;;;;8.15;100.00;100260.06;5982046;29;20039;-76
2023/01/11 10:42:20;;;;;;;1.13;0.40;;;;;;;8.13;100.00;100254.91;5980927;28;20039;-76
2023/01/11 10:45:17;;;;;;;1.30;0.73;;;;;;;8.23;100.00;100245.19;5982500;28;20391;-73
2023/01/11 10:48:22;;;;;;;1.55;0.90;;;;;;;8.19;100.00;100235.88;5965531;29;20046;-74
2023/01/11 10:51:30;;;;;;;1.50;1.00;;;;;;;8.19;100.00;100224.47;5982570;29;20561;-76
2023/01/11 10:54:30;;;;;;;1.27;0.65;;;;;;;8.19;100.00;100221.81;5965446;29;20085;-76
2023/01/11 10:57:37;;;;;;;1.30;0.60;;;;;;;8.25;100.00;100239.75;5982150;29;20039;-74
2023/01/11 11:00:40;;;;;;;0.75;0.50;;;;;;;8.18;100.00;100213.06;5982467;29;20031;-76
2023/01/11 11:03:51;;;;;;;1.48;0.80;;;;;;;8.30;100.00;100227.81;5980444;29;20059;-75
2023/01/11 11:07:13;;;;;;;1.05;0.40;;;;;;;8.31;100.00;100224.22;5964671;29;20418;-75
2023/01/11 11:10:28;;;;;;;1.08;0.60;;;;;;;8.35;100.00;100230.84;5965055;29;20430;-74
2023/01/11 11:13:46;;;;;;;1.15;0.70;;;;;;;8.33;100.00;100232.81;5981605;29;20435;-74
2023/01/11 11:17:10;;;;;;;0.88;0.60;;;;;;;8.41;100.00;100244.47;5964814;29;20031;-75
2023/01/11 11:20:14;;;;;;;3.72;0.88;;;;;;;8.33;100.00;100222.25;5964356;29;20027;-75
2023/01/11 11:23:14;;;;;;;1.10;0.63;;;;;;;8.31;100.00;100202.22;5963509;29;20038;-74
2023/01/11 11:26:10;;;;;;;1.60;0.70;;;;;;;8.41;100.00;100212.75;5964604;29;20027;-75
2023/01/11 11:29:07;;;;;;;0.95;0.50;;;;;;;8.45;100.00;100224.72;5964390;29;20130;-75
2023/01/11 11:32:02;;;;;;;1.80;0.70;;;;;;;8.53;100.00;100232.75;5981480;29;20050;-74
2023/01/11 11:34:58;;;;;;;0.87;0.70;;;;;;;8.53;100.00;100222.19;5981503;29;20043;-75
2023/01/11 11:37:54;;;;;;;0.77;0.63;;;;;;;8.62;100.00;100234.50;5963800;29;20848;-76
2023/01/11 11:40:59;;;;;;;0.63;0.45;;;;;;;8.61;100.00;100235.50;5964301;29;20066;-75
2023/01/11 11:44:13;;;;;;;0.82;0.52;;;;;;;8.51;100.00;100208.25;5980491;28;20039;-74
2023/01/11 11:47:14;;;;;;;1.73;0.70;;;;;;;8.51;100.00;100208.25;5964094;29;20042;-73
2023/01/11 11:50:18;;;;;;;0.70;0.47;;;;;;;8.57;100.00;100234.94;5981066;29;20089;-75
2023/01/11 11:53:26;;;;;;;0.98;0.68;;;;;;;8.55;100.00;100228.97;5968734;29;20063;-74
2023/01/11 11:56:28;;;;;;;1.27;0.73;;;;;;;8.50;100.00;100230.41;5980769;29;20101;-74
2023/01/11 11:59:27;;;;;;;0.50;0.40;;;;;;;8.36;100.00;100206.13;5963712;29;20082;-74
2023/01/11 12:02:26;;;;;;;1.65;0.47;;;;;;;8.45;100.00;100224.72;5979527;29;20163;-75
2023/01/11 12:05:21;;;;;;;4.07;1.33;;;;;;;8.32;100.00;100199.44;5980055;29;20027;-74
2023/01/11 12:08:17;;;;;;;0.73;0.50;;;;;;;8.43;100.00;100216.91;5963771;29;20082;-75
2023/01/11 12:11:19;;;;;;;1.48;0.93;;;;;;;8.45;100.00;100222.06;5963273;29;20035;-76
2023/01/11 12:14:16;;;;;;;1.13;0.68;;;;;;;8.45;100.00;100245.84;5955344;29;20074;-73
2023/01/11 12:17:23;;;;;;;1.58;0.80;;;;;;;8.32;100.00;100231.13;5978431;29;20039;-73
2023/01/11 12:20:21;;;;;;;0.80;0.60;;;;;;;8.34;100.00;100249.50;5980713;29;20043;-73
2023/01/11 12:23:24;;;;;;;2.63;0.80;;;;;;;8.24;100.00;100249.47;5979409;29;20114;-73
2023/01/11 12:26:22;;;;;;;2.35;1.00;;;;;;;8.19;100.00;100246.44;5978064;29;20047;-73
2023/01/11 12:29:27;;;;;;;3.15;0.95;;;;;;;8.19;100.00;100248.22;5963166;29;20467;-73
2023/01/11 12:32:44;;;;;;;1.10;0.60;;;;;;;8.24;100.00;100278.53;5979422;29;20399;-74
2023/01/11 12:35:50;;;;;;;1.33;0.90;;;;;;;8.24;100.00;100269.75;5980286;29;20039;-74
2023/01/11 12:39:04;;;;;;;2.63;1.15;;;;;;;8.26;100.00;100267.84;5963155;29;20027;-75
2023/01/11 12:42:12;;;;;;;2.13;1.45;;;;;;;8.17;100.00;100239.63;5978590;29;20031;-73
2023/01/11 12:45:44;;;;;;;4.35;1.50;;;;;;;8.29;100.00;100246.44;5979439;28;20058;-76
2023/01/11 12:49:05;;;;;;;2.95;1.20;;;;;;;8.24;100.00;100256.56;5935756;29;20130;-75
2023/01/11 12:52:20;;;;;;;1.77;0.80;;;;;;;8.27;100.00;100254.50;5977132;29;20399;-75
2023/01/11 12:55:36;;;;;;;1.20;0.70;;;;;;;8.29;100.00;100257.00;5979571;29;20038;-74
2023/01/11 12:58:39;;;;;;;1.30;0.90;;;;;;;8.31;100.00;100261.19;5962335;29;20228;-76
2023/01/11 13:02:09;;;;;;;2.17;0.90;;;;;;;8.22;100.00;100255.88;5979000;29;20039;-76
2023/01/11 13:05:35;;;;;;;2.65;0.75;;;;;;;8.34;100.00;100275.91;5977987;29;20055;-74
2023/01/11 13:08:52;;;;;;;1.27;0.68;;;;;;;8.28;100.00;100266.75;5962499;29;20181;-76
2023/01/11 13:11:57;;;;;;;1.92;0.80;;;;;;;8.36;100.00;100290.66;5962033;29;20441;-74
2023/01/11 13:15:05;;;;;;;1.02;0.70;;;;;;;8.40;100.00;100285.88;5962123;29;20035;-75
2023/01/11 13:18:11;;;;;;;1.00;0.70;;;;;;;8.30;100.00;100269.25;5978368;29;20123;-74
2023/01/11 13:21:31;;;;;;;0.95;0.73;;;;;;;8.33;100.00;100280.38;5979614;29;20043;-75
2023/01/11 13:24:28;;;;;;;1.77;0.93;;;;;;;8.33;100.00;100279.53;5961117;28;20039;-76
2023/01/11 13:27:24;;;;;;;1.73;1.05;;;;;;;8.38;100.00;100282.56;5962366;29;20494;-75
2023/01/11 13:30:23;;;;;;;2.40;0.80;;;;;;;8.34;100.00;100268.00;5978832;29;20069;-75
2023/01/11 13:33:22;;;;;;;4.28;1.60;;;;;;;8.35;100.00;100282.84;5961931;29;20505;-75
2023/01/11 13:36:21;;;;;;;2.03;1.10;;;;;;;8.44;100.00;100297.00;5962599;29;20042;-75
2023/01/11 13:39:27;;;;;;;2.85;1.30;;;;;;;8.38;100.00;100288.69;5962129;29;20046;-74
2023/01/11 13:42:30;;;;;;;3.58;1.40;;;;;;;8.43;100.00;100272.41;5961589;29;20089;-75
2023/01/11 13:45:30;;;;;;;3.83;0.90;;;;;;;8.52;100.00;100283.91;5962112;29;20038;-76
2023/01/11 13:48:51;;;;;;;2.58;1.20;;;;;;;8.54;100.00;100290.72;5961619;29;20036;-74
2023/01/11 13:51:51;;;;;;;4.95;1.08;;;;;;;8.43;100.00;100272.41;5952878;29;20039;-76
2023/01/11 13:54:47;;;;;;;1.67;0.90;;;;;;;8.58;100.00;100304.50;5961335;29;20530;-75
2023/01/11 13:57:49;;;;;;;4.28;1.50;;;;;;;8.60;100.00;100302.53;5978787;29;20066;-75
2023/01/11 14:00:50;;;;;;;2.28;1.20;;;;;;;8.56;100.00;100290.59;5961242;29;20066;-76
2023/01/11 14:03:52;;;;;;;5.05;1.55;;;;;;;8.66;100.00;100307.25;5977062;28;20047;-76
2023/01/11 14:07:16;;;;;;;4.07;1.70;;;;;;;8.70;100.00;100324.47;5961756;29;20069;-76
2023/01/11 14:10:29;;;;;;;4.25;1.50;;;;;;;8.73;100.00;100329.47;5978570;29;20035;-74
2023/01/11 14:17:14;;;;;;;4.57;1.48;;;;;;;8.66;100.00;100334.53;5963899;29;20035;-74
2023/01/11 14:20:33;;;;;;;4.45;1.50;;;;;;;8.70;100.00;100335.06;5975848;29;20625;-75
2023/01/11 14:23:39;;;;;;;4.97;2.45;;;;;;;8.62;100.00;100337.56;5976882;29;20035;-76
2023/01/11 14:26:53;;;;;;;3.45;1.70;;;;;;;8.72;100.00;100354.28;5972355;29;20042;-75
2023/01/11 14:30:00;;;;;;;11.93;3.67;;;;;;;8.71;100.00;100363.16;5976963;29;20691;-76
2023/01/11 14:33:21;;;;;;;5.35;1.95;;;;;;;8.72;100.00;100373.59;5976855;29;20490;-76
2023/01/11 14:36:41;;;;;;;4.50;1.83;;;;;;;8.72;100.00;100370.13;5978747;28;20062;-74
2023/01/11 14:39:45;;;;;;;;;;;;;;;8.72;100.00;100370.13;5983232;29;20039;-75
2023/01/11 14:43:16;;;;;;;5.38;1.88;;;;;;;8.73;100.00;100382.34;5981992;29;19918;-74